sensor_id;sensor_type;location;lat;lon;timestamp;P1;durP1;ratioP1;P2;durP2;ratioP2
20306;SDS011;10312;52.434;13.206;2022-11-25T00:01:09;29.08;;;17.80;;
20306;SDS011;10312;52.434;13.206;2022-11-25T00:03:37;25.10;;;16.45;;
20306;SDS011;10312;52.434;13.206;2022-11-25T00:08:42;26.27;;;16.92;;
20306;SDS011;10312;52.434;13.206;2022-11-25T00:11:10;25.52;;;16.98;;
20306;SDS011;10312;52.434;13.206;2022-11-25T00:13:38;25.58;;;16.35;;
20306;SDS011;10312;52.434;13.206;2022-11-25T00:16:06;23.95;;;16.77;;
20306;SDS011;10312;52.434;13.206;2022-11-25T00:18:37;25.85;;;16.63;;
20306;SDS011;10312;52.434;13.206;2022-11-25T00:21:06;24.80;;;16.33;;
20306;SDS011;10312;52.434;13.206;2022-11-25T00:23:33;25.20;;;15.90;;
20306;SDS011;10312;52.434;13.206;2022-11-25T00:26:11;26.80;;;17.00;;
20306;SDS011;10312;52.434;13.206;2022-11-25T00:28:39;28.90;;;16.33;;
20306;SDS011;10312;52.434;13.206;2022-11-25T00:31:08;28.25;;;16.20;;
20306;SDS011;10312;52.434;13.206;2022-11-25T00:33:37;25.85;;;16.58;;
20306;SDS011;10312;52.434;13.206;2022-11-25T00:36:04;25.70;;;16.25;;
20306;SDS011;10312;52.434;13.206;2022-11-25T00:38:32;25.00;;;16.65;;
20306;SDS011;10312;52.434;13.206;2022-11-25T00:40:59;26.75;;;16.80;;
20306;SDS011;10312;52.434;13.206;2022-11-25T00:44:04;22.77;;;15.13;;
20306;SDS011;10312;52.434;13.206;2022-11-25T00:46:50;25.30;;;15.88;;
20306;SDS011;10312;52.434;13.206;2022-11-25T00:49:16;25.30;;;15.73;;
20306;SDS011;10312;52.434;13.206;2022-11-25T00:51:44;25.58;;;15.57;;
20306;SDS011;10312;52.434;13.206;2022-11-25T00:54:11;26.42;;;16.60;;
20306;SDS011;10312;52.434;13.206;2022-11-25T00:56:38;23.35;;;15.55;;
20306;SDS011;10312;52.434;13.206;2022-11-25T00:59:04;24.00;;;15.73;;
20306;SDS011;10312;52.434;13.206;2022-11-25T01:01:31;23.42;;;15.88;;
20306;SDS011;10312;52.434;13.206;2022-11-25T01:04:00;26.27;;;16.42;;
20306;SDS011;10312;52.434;13.206;2022-11-25T01:06:27;25.88;;;16.15;;
20306;SDS011;10312;52.434;13.206;2022-11-25T01:08:54;27.83;;;15.55;;
20306;SDS011;10312;52.434;13.206;2022-11-25T01:11:21;24.60;;;15.90;;
20306;SDS011;10312;52.434;13.206;2022-11-25T01:13:48;23.40;;;15.75;;
20306;SDS011;10312;52.434;13.206;2022-11-25T01:16:16;25.20;;;15.77;;
20306;SDS011;10312;52.434;13.206;2022-11-25T01:18:45;24.75;;;15.68;;
20306;SDS011;10312;52.434;13.206;2022-11-25T01:23:40;23.88;;;15.63;;
20306;SDS011;10312;52.434;13.206;2022-11-25T01:26:08;22.05;;;15.60;;
20306;SDS011;10312;52.434;13.206;2022-11-25T01:28:36;21.88;;;15.27;;
20306;SDS011;10312;52.434;13.206;2022-11-25T01:31:11;24.88;;;15.57;;
20306;SDS011;10312;52.434;13.206;2022-11-25T01:33:42;24.23;;;15.48;;
20306;SDS011;10312;52.434;13.206;2022-11-25T01:36:12;26.48;;;16.08;;
20306;SDS011;10312;52.434;13.206;2022-11-25T01:38:42;24.30;;;15.40;;
20306;SDS011;10312;52.434;13.206;2022-11-25T01:41:11;22.35;;;14.77;;
20306;SDS011;10312;52.434;13.206;2022-11-25T01:43:39;24.00;;;16.35;;
20306;SDS011;10312;52.434;13.206;2022-11-25T01:46:24;22.67;;;16.02;;
20306;SDS011;10312;52.434;13.206;2022-11-25T01:48:53;20.95;;;15.13;;
20306;SDS011;10312;52.434;13.206;2022-11-25T01:51:22;25.85;;;16.98;;
20306;SDS011;10312;52.434;13.206;2022-11-25T01:53:51;24.77;;;15.63;;
20306;SDS011;10312;52.434;13.206;2022-11-25T01:56:20;22.98;;;14.70;;
20306;SDS011;10312;52.434;13.206;2022-11-25T01:58:46;26.23;;;15.32;;
20306;SDS011;10312;52.434;13.206;2022-11-25T02:01:14;24.98;;;15.68;;
20306;SDS011;10312;52.434;13.206;2022-11-25T02:03:43;21.92;;;14.48;;
20306;SDS011;10312;52.434;13.206;2022-11-25T02:06:17;23.23;;;15.25;;
20306;SDS011;10312;52.434;13.206;2022-11-25T02:08:49;24.38;;;15.27;;
20306;SDS011;10312;52.434;13.206;2022-11-25T02:11:18;26.15;;;16.35;;
20306;SDS011;10312;52.434;13.206;2022-11-25T02:13:46;27.27;;;16.92;;
20306;SDS011;10312;52.434;13.206;2022-11-25T02:16:16;25.65;;;16.00;;
20306;SDS011;10312;52.434;13.206;2022-11-25T02:18:43;25.35;;;16.30;;
20306;SDS011;10312;52.434;13.206;2022-11-25T02:21:10;25.65;;;16.75;;
20306;SDS011;10312;52.434;13.206;2022-11-25T02:26:14;29.10;;;16.85;;
20306;SDS011;10312;52.434;13.206;2022-11-25T02:28:41;26.55;;;16.40;;
20306;SDS011;10312;52.434;13.206;2022-11-25T02:31:08;28.90;;;18.13;;
20306;SDS011;10312;52.434;13.206;2022-11-25T02:33:35;26.80;;;17.90;;
20306;SDS011;10312;52.434;13.206;2022-11-25T02:36:02;25.38;;;16.50;;
20306;SDS011;10312;52.434;13.206;2022-11-25T02:38:35;31.98;;;18.65;;
20306;SDS011;10312;52.434;13.206;2022-11-25T02:41:07;27.35;;;17.15;;
20306;SDS011;10312;52.434;13.206;2022-11-25T02:43:42;31.70;;;18.00;;
20306;SDS011;10312;52.434;13.206;2022-11-25T02:46:10;27.10;;;16.98;;
20306;SDS011;10312;52.434;13.206;2022-11-25T02:48:44;31.52;;;17.17;;
20306;SDS011;10312;52.434;13.206;2022-11-25T02:51:31;27.15;;;16.42;;
20306;SDS011;10312;52.434;13.206;2022-11-25T02:53:59;28.05;;;18.55;;
20306;SDS011;10312;52.434;13.206;2022-11-25T02:56:29;29.45;;;16.90;;
20306;SDS011;10312;52.434;13.206;2022-11-25T02:58:59;27.08;;;17.48;;
20306;SDS011;10312;52.434;13.206;2022-11-25T03:01:27;28.63;;;17.52;;
20306;SDS011;10312;52.434;13.206;2022-11-25T03:03:57;32.83;;;18.38;;
20306;SDS011;10312;52.434;13.206;2022-11-25T03:06:26;28.95;;;16.30;;
20306;SDS011;10312;52.434;13.206;2022-11-25T03:08:54;27.05;;;17.08;;
20306;SDS011;10312;52.434;13.206;2022-11-25T03:11:24;28.23;;;16.35;;
20306;SDS011;10312;52.434;13.206;2022-11-25T03:14:12;29.63;;;17.65;;
20306;SDS011;10312;52.434;13.206;2022-11-25T03:16:40;28.10;;;17.88;;
20306;SDS011;10312;52.434;13.206;2022-11-25T03:19:07;28.08;;;17.60;;
20306;SDS011;10312;52.434;13.206;2022-11-25T03:21:34;33.45;;;18.35;;
20306;SDS011;10312;52.434;13.206;2022-11-25T03:24:01;29.50;;;17.33;;
20306;SDS011;10312;52.434;13.206;2022-11-25T03:26:27;28.63;;;17.02;;
20306;SDS011;10312;52.434;13.206;2022-11-25T03:28:54;29.27;;;17.10;;
20306;SDS011;10312;52.434;13.206;2022-11-25T03:31:21;30.42;;;17.63;;
20306;SDS011;10312;52.434;13.206;2022-11-25T03:33:48;29.33;;;17.08;;
20306;SDS011;10312;52.434;13.206;2022-11-25T03:36:21;29.25;;;17.17;;
20306;SDS011;10312;52.434;13.206;2022-11-25T03:38:48;26.30;;;16.40;;
20306;SDS011;10312;52.434;13.206;2022-11-25T03:41:15;25.30;;;16.35;;
20306;SDS011;10312;52.434;13.206;2022-11-25T03:43:41;27.10;;;16.73;;
20306;SDS011;10312;52.434;13.206;2022-11-25T03:46:08;27.25;;;16.75;;
20306;SDS011;10312;52.434;13.206;2022-11-25T03:48:35;32.10;;;16.83;;
20306;SDS011;10312;52.434;13.206;2022-11-25T03:51:02;27.15;;;16.30;;
20306;SDS011;10312;52.434;13.206;2022-11-25T03:53:29;26.10;;;15.85;;
20306;SDS011;10312;52.434;13.206;2022-11-25T03:55:58;26.65;;;16.65;;
20306;SDS011;10312;52.434;13.206;2022-11-25T03:58:25;27.65;;;15.82;;
20306;SDS011;10312;52.434;13.206;2022-11-25T04:00:53;28.45;;;16.33;;
20306;SDS011;10312;52.434;13.206;2022-11-25T04:03:20;24.45;;;15.82;;
20306;SDS011;10312;52.434;13.206;2022-11-25T04:05:47;24.77;;;15.95;;
20306;SDS011;10312;52.434;13.206;2022-11-25T04:08:14;26.40;;;16.20;;
20306;SDS011;10312;52.434;13.206;2022-11-25T04:10:43;25.58;;;15.70;;
20306;SDS011;10312;52.434;13.206;2022-11-25T04:13:10;31.75;;;16.60;;
20306;SDS011;10312;52.434;13.206;2022-11-25T04:15:46;25.50;;;14.88;;
20306;SDS011;10312;52.434;13.206;2022-11-25T04:18:16;25.58;;;15.60;;
20306;SDS011;10312;52.434;13.206;2022-11-25T04:20:43;23.73;;;14.73;;
20306;SDS011;10312;52.434;13.206;2022-11-25T04:23:14;22.20;;;15.10;;
20306;SDS011;10312;52.434;13.206;2022-11-25T04:25:53;22.42;;;14.55;;
20306;SDS011;10312;52.434;13.206;2022-11-25T04:28:25;22.45;;;13.93;;
20306;SDS011;10312;52.434;13.206;2022-11-25T04:30:51;22.88;;;14.52;;
20306;SDS011;10312;52.434;13.206;2022-11-25T04:33:18;24.52;;;15.10;;
20306;SDS011;10312;52.434;13.206;2022-11-25T04:35:46;22.40;;;14.07;;
20306;SDS011;10312;52.434;13.206;2022-11-25T04:38:13;21.45;;;13.95;;
20306;SDS011;10312;52.434;13.206;2022-11-25T04:40:40;22.05;;;13.25;;
20306;SDS011;10312;52.434;13.206;2022-11-25T04:43:17;21.33;;;13.38;;
20306;SDS011;10312;52.434;13.206;2022-11-25T04:45:48;23.08;;;15.25;;
20306;SDS011;10312;52.434;13.206;2022-11-25T04:48:36;23.17;;;14.55;;
20306;SDS011;10312;52.434;13.206;2022-11-25T04:51:03;22.15;;;14.25;;
20306;SDS011;10312;52.434;13.206;2022-11-25T04:53:30;24.63;;;14.13;;
20306;SDS011;10312;52.434;13.206;2022-11-25T04:55:57;22.35;;;14.23;;
20306;SDS011;10312;52.434;13.206;2022-11-25T04:58:24;21.23;;;14.25;;
20306;SDS011;10312;52.434;13.206;2022-11-25T05:01:09;22.77;;;15.20;;
20306;SDS011;10312;52.434;13.206;2022-11-25T05:03:41;20.90;;;14.32;;
20306;SDS011;10312;52.434;13.206;2022-11-25T05:06:16;21.33;;;14.43;;
20306;SDS011;10312;52.434;13.206;2022-11-25T05:08:43;23.45;;;14.30;;
20306;SDS011;10312;52.434;13.206;2022-11-25T05:11:10;25.98;;;14.52;;
20306;SDS011;10312;52.434;13.206;2022-11-25T05:13:37;22.20;;;13.85;;
20306;SDS011;10312;52.434;13.206;2022-11-25T05:16:05;20.52;;;13.57;;
20306;SDS011;10312;52.434;13.206;2022-11-25T05:18:32;21.40;;;13.32;;
20306;SDS011;10312;52.434;13.206;2022-11-25T05:21:02;24.38;;;13.55;;
20306;SDS011;10312;52.434;13.206;2022-11-25T05:23:34;22.55;;;14.27;;
20306;SDS011;10312;52.434;13.206;2022-11-25T05:26:02;22.17;;;14.68;;
20306;SDS011;10312;52.434;13.206;2022-11-25T05:28:36;21.83;;;14.52;;
20306;SDS011;10312;52.434;13.206;2022-11-25T05:31:03;24.75;;;13.73;;
20306;SDS011;10312;52.434;13.206;2022-11-25T05:33:30;26.50;;;15.85;;
20306;SDS011;10312;52.434;13.206;2022-11-25T05:35:59;26.60;;;15.18;;
20306;SDS011;10312;52.434;13.206;2022-11-25T05:38:34;24.63;;;14.50;;
20306;SDS011;10312;52.434;13.206;2022-11-25T05:41:02;26.65;;;16.05;;
20306;SDS011;10312;52.434;13.206;2022-11-25T05:43:31;25.42;;;15.50;;
20306;SDS011;10312;52.434;13.206;2022-11-25T05:45:59;24.55;;;16.27;;
20306;SDS011;10312;52.434;13.206;2022-11-25T05:48:30;27.00;;;16.58;;
20306;SDS011;10312;52.434;13.206;2022-11-25T05:51:01;27.42;;;16.20;;
20306;SDS011;10312;52.434;13.206;2022-11-25T05:53:29;23.60;;;15.30;;
20306;SDS011;10312;52.434;13.206;2022-11-25T05:55:57;28.30;;;16.17;;
20306;SDS011;10312;52.434;13.206;2022-11-25T05:58:48;23.90;;;16.13;;
20306;SDS011;10312;52.434;13.206;2022-11-25T06:01:15;25.50;;;16.75;;
20306;SDS011;10312;52.434;13.206;2022-11-25T06:03:43;29.58;;;16.45;;
20306;SDS011;10312;52.434;13.206;2022-11-25T06:06:10;25.33;;;13.75;;
20306;SDS011;10312;52.434;13.206;2022-11-25T06:08:38;27.85;;;16.05;;
20306;SDS011;10312;52.434;13.206;2022-11-25T06:11:06;27.38;;;16.98;;
20306;SDS011;10312;52.434;13.206;2022-11-25T06:13:33;28.20;;;16.10;;
20306;SDS011;10312;52.434;13.206;2022-11-25T06:16:05;26.25;;;15.25;;
20306;SDS011;10312;52.434;13.206;2022-11-25T06:18:46;25.20;;;15.45;;
20306;SDS011;10312;52.434;13.206;2022-11-25T06:21:13;26.17;;;15.07;;
20306;SDS011;10312;52.434;13.206;2022-11-25T06:23:41;27.67;;;15.65;;
20306;SDS011;10312;52.434;13.206;2022-11-25T06:26:13;27.98;;;15.35;;
20306;SDS011;10312;52.434;13.206;2022-11-25T06:28:47;25.73;;;15.40;;
20306;SDS011;10312;52.434;13.206;2022-11-25T06:31:14;28.65;;;16.75;;
20306;SDS011;10312;52.434;13.206;2022-11-25T06:33:52;26.80;;;15.77;;
20306;SDS011;10312;52.434;13.206;2022-11-25T06:36:20;23.73;;;14.50;;
20306;SDS011;10312;52.434;13.206;2022-11-25T06:38:48;23.80;;;15.60;;
20306;SDS011;10312;52.434;13.206;2022-11-25T06:41:16;25.33;;;14.90;;
20306;SDS011;10312;52.434;13.206;2022-11-25T06:43:43;28.27;;;15.65;;
20306;SDS011;10312;52.434;13.206;2022-11-25T06:46:11;28.67;;;15.80;;
20306;SDS011;10312;52.434;13.206;2022-11-25T06:48:42;34.33;;;16.98;;
20306;SDS011;10312;52.434;13.206;2022-11-25T06:51:09;27.38;;;16.35;;
20306;SDS011;10312;52.434;13.206;2022-11-25T06:53:37;30.48;;;16.10;;
20306;SDS011;10312;52.434;13.206;2022-11-25T06:56:12;30.27;;;17.23;;
20306;SDS011;10312;52.434;13.206;2022-11-25T06:58:40;32.70;;;16.63;;
20306;SDS011;10312;52.434;13.206;2022-11-25T07:01:10;36.92;;;17.13;;
20306;SDS011;10312;52.434;13.206;2022-11-25T07:03:40;32.42;;;18.30;;
20306;SDS011;10312;52.434;13.206;2022-11-25T07:06:08;32.30;;;18.15;;
20306;SDS011;10312;52.434;13.206;2022-11-25T07:08:36;34.17;;;17.30;;
20306;SDS011;10312;52.434;13.206;2022-11-25T07:11:04;45.88;;;17.80;;
20306;SDS011;10312;52.434;13.206;2022-11-25T07:13:32;35.08;;;17.23;;
20306;SDS011;10312;52.434;13.206;2022-11-25T07:16:00;55.75;;;28.10;;
20306;SDS011;10312;52.434;13.206;2022-11-25T07:18:31;48.85;;;20.23;;
20306;SDS011;10312;52.434;13.206;2022-11-25T07:21:03;39.97;;;19.42;;
20306;SDS011;10312;52.434;13.206;2022-11-25T07:23:35;49.53;;;19.55;;
20306;SDS011;10312;52.434;13.206;2022-11-25T07:26:03;40.65;;;21.42;;
20306;SDS011;10312;52.434;13.206;2022-11-25T07:28:35;43.67;;;18.92;;
20306;SDS011;10312;52.434;13.206;2022-11-25T07:31:06;69.18;;;19.27;;
20306;SDS011;10312;52.434;13.206;2022-11-25T07:33:59;56.13;;;18.98;;
20306;SDS011;10312;52.434;13.206;2022-11-25T07:36:27;38.00;;;18.27;;
20306;SDS011;10312;52.434;13.206;2022-11-25T07:38:55;44.08;;;21.02;;
20306;SDS011;10312;52.434;13.206;2022-11-25T07:41:26;35.95;;;20.05;;
20306;SDS011;10312;52.434;13.206;2022-11-25T07:43:54;31.73;;;18.00;;
20306;SDS011;10312;52.434;13.206;2022-11-25T07:46:30;32.80;;;17.35;;
20306;SDS011;10312;52.434;13.206;2022-11-25T07:49:08;37.97;;;18.23;;
20306;SDS011;10312;52.434;13.206;2022-11-25T07:51:38;33.60;;;17.05;;
20306;SDS011;10312;52.434;13.206;2022-11-25T07:54:08;33.25;;;16.33;;
20306;SDS011;10312;52.434;13.206;2022-11-25T07:56:40;29.00;;;16.08;;
20306;SDS011;10312;52.434;13.206;2022-11-25T07:59:09;30.27;;;16.38;;
20306;SDS011;10312;52.434;13.206;2022-11-25T08:01:38;33.10;;;16.55;;
20306;SDS011;10312;52.434;13.206;2022-11-25T08:04:07;47.28;;;16.58;;
20306;SDS011;10312;52.434;13.206;2022-11-25T08:06:36;27.17;;;15.63;;
20306;SDS011;10312;52.434;13.206;2022-11-25T08:09:04;24.87;;;15.20;;
20306;SDS011;10312;52.434;13.206;2022-11-25T08:11:31;28.52;;;15.30;;
20306;SDS011;10312;52.434;13.206;2022-11-25T08:13:58;25.45;;;14.60;;
20306;SDS011;10312;52.434;13.206;2022-11-25T08:16:31;26.25;;;13.82;;
20306;SDS011;10312;52.434;13.206;2022-11-25T08:18:59;37.22;;;14.70;;
20306;SDS011;10312;52.434;13.206;2022-11-25T08:21:27;48.90;;;13.93;;
20306;SDS011;10312;52.434;13.206;2022-11-25T08:23:54;44.95;;;14.35;;
20306;SDS011;10312;52.434;13.206;2022-11-25T08:26:22;29.30;;;15.35;;
20306;SDS011;10312;52.434;13.206;2022-11-25T08:28:51;35.92;;;13.82;;
20306;SDS011;10312;52.434;13.206;2022-11-25T08:31:20;23.95;;;15.05;;
20306;SDS011;10312;52.434;13.206;2022-11-25T08:33:50;27.75;;;15.95;;
20306;SDS011;10312;52.434;13.206;2022-11-25T08:36:17;23.70;;;14.85;;
20306;SDS011;10312;52.434;13.206;2022-11-25T08:38:45;26.10;;;13.82;;
20306;SDS011;10312;52.434;13.206;2022-11-25T08:41:15;25.40;;;14.40;;
20306;SDS011;10312;52.434;13.206;2022-11-25T08:44:09;30.60;;;15.23;;
20306;SDS011;10312;52.434;13.206;2022-11-25T08:46:38;25.10;;;14.15;;
20306;SDS011;10312;52.434;13.206;2022-11-25T08:49:06;32.08;;;13.30;;
20306;SDS011;10312;52.434;13.206;2022-11-25T08:51:35;22.77;;;14.10;;
20306;SDS011;10312;52.434;13.206;2022-11-25T08:54:02;27.33;;;13.40;;
20306;SDS011;10312;52.434;13.206;2022-11-25T08:56:30;22.67;;;13.13;;
20306;SDS011;10312;52.434;13.206;2022-11-25T08:58:57;21.27;;;13.18;;
20306;SDS011;10312;52.434;13.206;2022-11-25T09:01:25;22.45;;;13.68;;
20306;SDS011;10312;52.434;13.206;2022-11-25T09:03:53;21.25;;;12.50;;
20306;SDS011;10312;52.434;13.206;2022-11-25T09:06:22;23.17;;;13.18;;
20306;SDS011;10312;52.434;13.206;2022-11-25T09:08:50;20.55;;;12.52;;
20306;SDS011;10312;52.434;13.206;2022-11-25T09:11:18;23.88;;;12.85;;
20306;SDS011;10312;52.434;13.206;2022-11-25T09:13:45;21.40;;;12.35;;
20306;SDS011;10312;52.434;13.206;2022-11-25T09:16:12;24.65;;;13.05;;
20306;SDS011;10312;52.434;13.206;2022-11-25T09:18:40;23.73;;;13.77;;
20306;SDS011;10312;52.434;13.206;2022-11-25T09:21:08;23.05;;;14.00;;
20306;SDS011;10312;52.434;13.206;2022-11-25T09:23:36;25.02;;;13.57;;
20306;SDS011;10312;52.434;13.206;2022-11-25T09:26:04;20.25;;;12.05;;
20306;SDS011;10312;52.434;13.206;2022-11-25T09:28:31;23.33;;;12.77;;
20306;SDS011;10312;52.434;13.206;2022-11-25T09:31:04;19.63;;;12.25;;
20306;SDS011;10312;52.434;13.206;2022-11-25T09:33:35;19.27;;;12.55;;
20306;SDS011;10312;52.434;13.206;2022-11-25T09:36:03;21.02;;;12.45;;
20306;SDS011;10312;52.434;13.206;2022-11-25T09:38:31;18.42;;;12.23;;
20306;SDS011;10312;52.434;13.206;2022-11-25T09:41:00;21.88;;;12.00;;
20306;SDS011;10312;52.434;13.206;2022-11-25T09:46:37;22.83;;;12.95;;
20306;SDS011;10312;52.434;13.206;2022-11-25T09:55:09;23.02;;;13.07;;
20306;SDS011;10312;52.434;13.206;2022-11-25T10:00:37;21.60;;;13.90;;
20306;SDS011;10312;52.434;13.206;2022-11-25T10:05:41;22.83;;;14.85;;
20306;SDS011;10312;52.434;13.206;2022-11-25T10:08:20;23.75;;;14.20;;
20306;SDS011;10312;52.434;13.206;2022-11-25T10:10:50;22.05;;;14.63;;
20306;SDS011;10312;52.434;13.206;2022-11-25T10:13:26;26.85;;;14.90;;
20306;SDS011;10312;52.434;13.206;2022-11-25T10:15:58;27.35;;;15.43;;
20306;SDS011;10312;52.434;13.206;2022-11-25T10:18:33;40.92;;;13.75;;
20306;SDS011;10312;52.434;13.206;2022-11-25T10:21:04;23.88;;;13.07;;
20306;SDS011;10312;52.434;13.206;2022-11-25T10:23:33;28.52;;;12.93;;
20306;SDS011;10312;52.434;13.206;2022-11-25T10:26:07;34.92;;;14.18;;
20306;SDS011;10312;52.434;13.206;2022-11-25T10:28:38;30.63;;;13.02;;
20306;SDS011;10312;52.434;13.206;2022-11-25T10:36:14;19.00;;;10.68;;
20306;SDS011;10312;52.434;13.206;2022-11-25T10:38:48;17.90;;;10.60;;
20306;SDS011;10312;52.434;13.206;2022-11-25T10:41:23;20.65;;;9.93;;
20306;SDS011;10312;52.434;13.206;2022-11-25T10:43:52;17.17;;;9.25;;
20306;SDS011;10312;52.434;13.206;2022-11-25T10:46:29;24.60;;;10.10;;
20306;SDS011;10312;52.434;13.206;2022-11-25T10:51:52;16.85;;;8.60;;
20306;SDS011;10312;52.434;13.206;2022-11-25T10:54:21;16.27;;;8.57;;
20306;SDS011;10312;52.434;13.206;2022-11-25T10:57:38;12.48;;;7.38;;
20306;SDS011;10312;52.434;13.206;2022-11-25T10:59:58;14.07;;;7.57;;
20306;SDS011;10312;52.434;13.206;2022-11-25T11:02:27;11.93;;;7.25;;
20306;SDS011;10312;52.434;13.206;2022-11-25T11:07:30;12.20;;;6.90;;
20306;SDS011;10312;52.434;13.206;2022-11-25T11:10:07;13.02;;;7.50;;
20306;SDS011;10312;52.434;13.206;2022-11-25T11:12:59;12.57;;;6.93;;
20306;SDS011;10312;52.434;13.206;2022-11-25T11:20:47;15.27;;;7.47;;
20306;SDS011;10312;52.434;13.206;2022-11-25T11:23:15;14.25;;;6.55;;
20306;SDS011;10312;52.434;13.206;2022-11-25T11:25:42;12.15;;;6.60;;
20306;SDS011;10312;52.434;13.206;2022-11-25T11:28:25;12.63;;;6.18;;
20306;SDS011;10312;52.434;13.206;2022-11-25T11:31:20;16.45;;;7.10;;
20306;SDS011;10312;52.434;13.206;2022-11-25T11:42:31;10.77;;;6.07;;
20306;SDS011;10312;52.434;13.206;2022-11-25T11:45:11;13.30;;;6.10;;
20306;SDS011;10312;52.434;13.206;2022-11-25T11:53:57;13.20;;;6.65;;
20306;SDS011;10312;52.434;13.206;2022-11-25T11:56:35;11.60;;;5.55;;
20306;SDS011;10312;52.434;13.206;2022-11-25T12:04:46;12.65;;;6.40;;
20306;SDS011;10312;52.434;13.206;2022-11-25T12:08:07;13.63;;;6.07;;
20306;SDS011;10312;52.434;13.206;2022-11-25T12:13:04;11.30;;;6.15;;
20306;SDS011;10312;52.434;13.206;2022-11-25T12:18:17;11.05;;;6.28;;
20306;SDS011;10312;52.434;13.206;2022-11-25T12:23:20;17.80;;;6.22;;
20306;SDS011;10312;52.434;13.206;2022-11-25T12:25:53;26.48;;;7.25;;
20306;SDS011;10312;52.434;13.206;2022-11-25T12:28:42;14.45;;;6.25;;
20306;SDS011;10312;52.434;13.206;2022-11-25T12:31:18;15.48;;;6.13;;
20306;SDS011;10312;52.434;13.206;2022-11-25T12:36:47;14.00;;;5.65;;
20306;SDS011;10312;52.434;13.206;2022-11-25T12:41:54;13.43;;;5.68;;
20306;SDS011;10312;52.434;13.206;2022-11-25T12:47:30;16.83;;;6.10;;
20306;SDS011;10312;52.434;13.206;2022-11-25T12:49:57;12.75;;;5.43;;
20306;SDS011;10312;52.434;13.206;2022-11-25T12:55:27;14.93;;;5.45;;
20306;SDS011;10312;52.434;13.206;2022-11-25T12:58:01;10.20;;;5.80;;
20306;SDS011;10312;52.434;13.206;2022-11-25T13:00:48;15.73;;;7.47;;
20306;SDS011;10312;52.434;13.206;2022-11-25T13:07:41;16.73;;;8.50;;
20306;SDS011;10312;52.434;13.206;2022-11-25T13:10:05;20.08;;;9.13;;
20306;SDS011;10312;52.434;13.206;2022-11-25T13:13:03;16.60;;;9.25;;
20306;SDS011;10312;52.434;13.206;2022-11-25T13:15:44;15.45;;;8.65;;
20306;SDS011;10312;52.434;13.206;2022-11-25T13:18:15;14.02;;;8.98;;
20306;SDS011;10312;52.434;13.206;2022-11-25T13:20:48;14.63;;;9.20;;
20306;SDS011;10312;52.434;13.206;2022-11-25T13:25:45;17.98;;;9.40;;
20306;SDS011;10312;52.434;13.206;2022-11-25T13:36:21;14.70;;;9.32;;
20306;SDS011;10312;52.434;13.206;2022-11-25T13:41:20;19.90;;;10.70;;
20306;SDS011;10312;52.434;13.206;2022-11-25T13:43:59;17.15;;;11.38;;
20306;SDS011;10312;52.434;13.206;2022-11-25T13:49:51;19.27;;;11.60;;
20306;SDS011;10312;52.434;13.206;2022-11-25T13:54:44;18.08;;;12.23;;
20306;SDS011;10312;52.434;13.206;2022-11-25T13:57:18;19.33;;;11.82;;
20306;SDS011;10312;52.434;13.206;2022-11-25T14:02:28;20.17;;;13.45;;
20306;SDS011;10312;52.434;13.206;2022-11-25T14:16:44;24.08;;;13.68;;
20306;SDS011;10312;52.434;13.206;2022-11-25T14:25:54;25.75;;;13.35;;
20306;SDS011;10312;52.434;13.206;2022-11-25T14:28:24;22.23;;;13.07;;
20306;SDS011;10312;52.434;13.206;2022-11-25T14:30:55;21.80;;;13.30;;
20306;SDS011;10312;52.434;13.206;2022-11-25T14:33:36;22.63;;;12.73;;
20306;SDS011;10312;52.434;13.206;2022-11-25T14:36:17;25.00;;;14.50;;
20306;SDS011;10312;52.434;13.206;2022-11-25T14:38:55;23.20;;;12.25;;
20306;SDS011;10312;52.434;13.206;2022-11-25T14:41:34;21.65;;;13.00;;
20306;SDS011;10312;52.434;13.206;2022-11-25T14:44:07;20.48;;;13.32;;
20306;SDS011;10312;52.434;13.206;2022-11-25T14:46:52;20.70;;;11.32;;
20306;SDS011;10312;52.434;13.206;2022-11-25T14:49:21;23.20;;;11.57;;
20306;SDS011;10312;52.434;13.206;2022-11-25T14:52:08;21.25;;;11.63;;
20306;SDS011;10312;52.434;13.206;2022-11-25T14:54:40;20.25;;;11.10;;
20306;SDS011;10312;52.434;13.206;2022-11-25T14:57:07;18.98;;;11.70;;
20306;SDS011;10312;52.434;13.206;2022-11-25T14:59:35;19.70;;;11.25;;
20306;SDS011;10312;52.434;13.206;2022-11-25T15:02:20;21.75;;;11.57;;
20306;SDS011;10312;52.434;13.206;2022-11-25T15:04:49;20.08;;;11.90;;
20306;SDS011;10312;52.434;13.206;2022-11-25T15:07:17;17.20;;;10.40;;
20306;SDS011;10312;52.434;13.206;2022-11-25T15:09:54;17.40;;;10.32;;
20306;SDS011;10312;52.434;13.206;2022-11-25T15:12:21;18.90;;;9.75;;
20306;SDS011;10312;52.434;13.206;2022-11-25T15:14:52;14.85;;;8.57;;
20306;SDS011;10312;52.434;13.206;2022-11-25T15:19:57;17.23;;;8.85;;
20306;SDS011;10312;52.434;13.206;2022-11-25T15:22:27;17.63;;;8.68;;
20306;SDS011;10312;52.434;13.206;2022-11-25T15:24:54;14.63;;;7.20;;
20306;SDS011;10312;52.434;13.206;2022-11-25T15:27:32;14.57;;;7.35;;
20306;SDS011;10312;52.434;13.206;2022-11-25T15:30:16;11.68;;;6.13;;
20306;SDS011;10312;52.434;13.206;2022-11-25T15:32:46;17.42;;;5.85;;
20306;SDS011;10312;52.434;13.206;2022-11-25T15:35:21;14.10;;;6.90;;
20306;SDS011;10312;52.434;13.206;2022-11-25T15:37:48;10.77;;;5.65;;
20306;SDS011;10312;52.434;13.206;2022-11-25T15:43:03;12.18;;;6.45;;
20306;SDS011;10312;52.434;13.206;2022-11-25T15:45:42;9.02;;;5.63;;
20306;SDS011;10312;52.434;13.206;2022-11-25T15:48:24;10.70;;;5.68;;
20306;SDS011;10312;52.434;13.206;2022-11-25T15:50:57;13.23;;;6.50;;
20306;SDS011;10312;52.434;13.206;2022-11-25T15:53:53;13.65;;;5.55;;
20306;SDS011;10312;52.434;13.206;2022-11-25T15:56:29;13.63;;;5.22;;
20306;SDS011;10312;52.434;13.206;2022-11-25T15:58:58;12.52;;;5.70;;
20306;SDS011;10312;52.434;13.206;2022-11-25T16:01:27;17.55;;;6.00;;
20306;SDS011;10312;52.434;13.206;2022-11-25T16:04:08;12.57;;;5.50;;
20306;SDS011;10312;52.434;13.206;2022-11-25T16:06:50;12.77;;;5.32;;
20306;SDS011;10312;52.434;13.206;2022-11-25T16:09:19;13.10;;;5.65;;
20306;SDS011;10312;52.434;13.206;2022-11-25T16:11:46;9.70;;;5.38;;
20306;SDS011;10312;52.434;13.206;2022-11-25T16:14:28;13.48;;;5.63;;
20306;SDS011;10312;52.434;13.206;2022-11-25T16:17:00;11.90;;;5.65;;
20306;SDS011;10312;52.434;13.206;2022-11-25T16:19:33;15.38;;;6.30;;
20306;SDS011;10312;52.434;13.206;2022-11-25T16:22:08;15.85;;;6.30;;
20306;SDS011;10312;52.434;13.206;2022-11-25T16:24:52;12.93;;;6.13;;
20306;SDS011;10312;52.434;13.206;2022-11-25T16:27:27;11.82;;;5.90;;
20306;SDS011;10312;52.434;13.206;2022-11-25T16:32:31;13.35;;;5.70;;
20306;SDS011;10312;52.434;13.206;2022-11-25T16:35:00;12.70;;;5.25;;
20306;SDS011;10312;52.434;13.206;2022-11-25T16:37:37;12.60;;;5.65;;
20306;SDS011;10312;52.434;13.206;2022-11-25T16:40:12;12.13;;;6.03;;
20306;SDS011;10312;52.434;13.206;2022-11-25T16:42:46;14.07;;;5.88;;
20306;SDS011;10312;52.434;13.206;2022-11-25T16:45:21;14.45;;;5.82;;